^^
Meteo Knjazevac Station Historical Data
Daily Summary for September 29, 2022 Units:  Metric    English   Both
Daily Weekly Monthly Yearly Custom
  High: Low: Average:
Temperature: 21.3 °C 11.2 °C 16.4 °C
Dew Point: 17.5 °C 11 °C 14.3 °C
Humidity: 99% 70% 87%
Wind Speed: 23.5km/h 1.3km/h 7.6km/h
Wind Gust: 29km/h - -
Wind- - SW
Pressure: 1012.8 hPa 1008.7 hPa -
Precipitation: 0.25 mm    
Historical Graphs
 
 
Tabular Data for September 29, 2022
Time Temperature Dew Point Pressure Wind Wind Speed Wind Gust Humidity Rainfall Rate (Hourly) solar Conditions
00:04 14.9 °C 12.6 °C 1009.4 hPa South 8 km/h 9.7 km/h 86.2% 0 mm 0 W/m2
00:09 14.9 °C 12.8 °C 1009.4 hPa South 4.8 km/h 9.7 km/h 86.6% 0 mm 0 W/m2
00:14 14.8 °C 12.8 °C 1009.4 hPa WSW 3.7 km/h 4.8 km/h 88% 0 mm 0 W/m2
00:19 14.7 °C 12.7 °C 1009.4 hPa NNW 3.4 km/h 3.2 km/h 88.4% 0 mm 0 W/m2
00:24 14.4 °C 12.6 °C 1009.4 hPa North 3.5 km/h 3.2 km/h 89% 0 mm 0 W/m2
00:29 14.3 °C 12.5 °C 1009.4 hPa NNE 4.8 km/h 4.8 km/h 89% 0 mm 0 W/m2
00:34 14.1 °C 12.4 °C 1009.4 hPa NE 5 km/h 6.4 km/h 89.7% 0 mm 0 W/m2
00:39 13.9 °C 12.3 °C 1009.4 hPa ENE 2.7 km/h 6.4 km/h 90% 0 mm 0 W/m2
00:44 13.8 °C 12.2 °C 1009.4 hPa North 3.5 km/h 3.2 km/h 90.2% 0 mm 0 W/m2
00:49 13.7 °C 12.3 °C 1009.4 hPa North 1.8 km/h 3.2 km/h 90.9% 0 mm 0 W/m2
00:54 13.6 °C 12.2 °C 1009.4 hPa North 2.9 km/h 4.8 km/h 91.4% 0 mm 0 W/m2
00:59 13.4 °C 12.3 °C 1009 hPa North 2.6 km/h 3.2 km/h 93% 0 mm 0 W/m2
01:04 13.3 °C 12.2 °C 1009.4 hPa North 3.2 km/h 3.2 km/h 93% 0 mm 0 W/m2
01:09 13.2 °C 12.1 °C 1009.4 hPa NW 5.1 km/h 4.8 km/h 93.3% 0 mm 0 W/m2
01:14 13 °C 12.1 °C 1009.4 hPa West 4.5 km/h 6.4 km/h 94% 0 mm 0 W/m2
01:19 12.9 °C 11.9 °C 1009 hPa West 4 km/h 6.4 km/h 94% 0 mm 0 W/m2
01:24 12.8 °C 12 °C 1009.4 hPa NW 2.9 km/h 4.8 km/h 94.6% 0 mm 0 W/m2
01:29 12.8 °C 11.8 °C 1009.4 hPa NW 3.2 km/h 3.2 km/h 94.1% 0 mm 0 W/m2
01:34 12.8 °C 11.9 °C 1009.4 hPa NNW 2.7 km/h 3.2 km/h 94.7% 0 mm 0 W/m2
01:39 12.7 °C 11.9 °C 1009.4 hPa NNW 3.1 km/h 3.2 km/h 94.8% 0 mm 0 W/m2
01:44 12.4 °C 11.5 °C 1009 hPa West 4.5 km/h 4.8 km/h 94% 0 mm 0 W/m2
01:49 12.2 °C 11.3 °C 1009.4 hPa WSW 5.6 km/h 6.4 km/h 94% 0 mm 0 W/m2
01:54 12.1 °C 11.3 °C 1009.4 hPa West 7.1 km/h 8 km/h 94.9% 0 mm 0 W/m2
01:59 12.1 °C 11.3 °C 1009.4 hPa WNW 7.2 km/h 8 km/h 95.3% 0 mm 0 W/m2
02:04 12.2 °C 11.4 °C 1009.4 hPa NW 3.7 km/h 8 km/h 95% 0 mm 0 W/m2
02:09 12.3 °C 11.6 °C 1009.4 hPa NNW 2.7 km/h 4.8 km/h 95% 0 mm 0 W/m2
02:14 12.5 °C 11.7 °C 1009.4 hPa NE 2.7 km/h 3.2 km/h 95% 0 mm 0 W/m2
02:19 12.5 °C 11.7 °C 1009 hPa ESE 5 km/h 5.5 km/h 95% 0 mm 0 W/m2
02:24 12.3 °C 11.6 °C 1009 hPa ESE 2.4 km/h 8 km/h 95% 0 mm 0 W/m2
02:29 12.3 °C 11.5 °C 1009 hPa NNE 3.7 km/h 3.2 km/h 95% 0 mm 0 W/m2
02:34 12.2 °C 11.4 °C 1009 hPa NNW 3.9 km/h 4.8 km/h 95% 0 mm 0 W/m2
02:39 12.1 °C 11.3 °C 1009 hPa North 1.8 km/h 4.8 km/h 95% 0 mm 0 W/m2
02:44 12.1 °C 11.4 °C 1009 hPa NNW 2.6 km/h 3.2 km/h 95.7% 0 mm 0 W/m2
02:49 12.1 °C 11.5 °C 1009 hPa WNW 3.9 km/h 3.2 km/h 96% 0 mm 0 W/m2
02:54 12.1 °C 11.4 °C 1009 hPa WNW 1.9 km/h 4.8 km/h 96% 0 mm 0 W/m2
02:59 11.9 °C 11.3 °C 1009 hPa NW 3.5 km/h 3.5 km/h 96% 0 mm 0 W/m2
03:04 11.8 °C 11.2 °C 1009 hPa WNW 3.7 km/h 4.8 km/h 96% 0 mm 0 W/m2
03:09 11.7 °C 11.1 °C 1009 hPa West 3.5 km/h 3.2 km/h 96% 0 mm 0 W/m2
03:14 11.6 °C 11 °C 1009 hPa WSW 3.7 km/h 4.8 km/h 96.2% 0 mm 0 W/m2
03:19 11.5 °C 11.2 °C 1009 hPa West 5 km/h 4.8 km/h 97.8% 0 mm 0 W/m2
03:24 11.5 °C 11.2 °C 1009 hPa WNW 6.9 km/h 6.4 km/h 98.1% 0 mm 0 W/m2
03:29 11.5 °C 11.3 °C 1009 hPa NW 4.5 km/h 8 km/h 98.9% 0 mm 0 W/m2
03:34 11.7 °C 11.4 °C 1009 hPa NNW 2.9 km/h 3.2 km/h 98.3% 0 mm 0 W/m2
03:39 11.8 °C 11.5 °C 1009 hPa NE 2.9 km/h 3.2 km/h 98% 0 mm 0 W/m2
03:44 11.7 °C 11.4 °C 1009 hPa SW 1.8 km/h 3.2 km/h 98% 0 mm 0 W/m2
03:49 11.6 °C 11.3 °C 1009 hPa WSW 3.5 km/h 3.2 km/h 98% 0 mm 0 W/m2
03:54 11.4 °C 11.2 °C 1009 hPa West 4.2 km/h 3.5 km/h 98% 0 mm 0 W/m2
03:59 11.3 °C 11.1 °C 1009.4 hPa West 6.3 km/h 5.8 km/h 98% 0 mm 0 W/m2
04:04 11.2 °C 11 °C 1009 hPa West 7.1 km/h 8 km/h 98.8% 0 mm 0 W/m2
04:09 11.2 °C 11.1 °C 1009 hPa WNW 6 km/h 8 km/h 99% 0 mm 0 W/m2
04:14 11.2 °C 11.1 °C 1009 hPa WNW 4.2 km/h 6.4 km/h 99% 0 mm 0 W/m2
04:19 11.3 °C 11.2 °C 1009 hPa West 2.9 km/h 4.8 km/h 99% 0 mm 0 W/m2
04:24 11.4 °C 11.2 °C 1009 hPa WSW 4.5 km/h 4.8 km/h 99% 0 mm 0 W/m2
04:29 11.3 °C 11.2 °C 1009.4 hPa SW 4.3 km/h 4.8 km/h 99% 0 mm 0 W/m2
04:34 11.3 °C 11.2 °C 1009.4 hPa WSW 5.6 km/h 4.8 km/h 99% 0 mm 0 W/m2
04:39 11.3 °C 11.2 °C 1009 hPa WNW 4.7 km/h 6.4 km/h 99% 0 mm 0 W/m2
04:44 11.3 °C 11.2 °C 1009 hPa NW 2.4 km/h 4.8 km/h 99% 0 mm 0 W/m2
04:49 11.4 °C 11.2 °C 1009 hPa WNW 3.5 km/h 3.2 km/h 99% 0 mm 0 W/m2
04:54 11.5 °C 11.3 °C 1009 hPa West 4.8 km/h 4.3 km/h 99% 0 mm 0 W/m2
04:59 11.6 °C 11.4 °C 1009.4 hPa WNW 5.6 km/h 4.8 km/h 99% 0 mm 0 W/m2
05:04 11.7 °C 11.6 °C 1009.4 hPa NW 6.3 km/h 6.4 km/h 99% 0 mm 0 W/m2
05:09 11.8 °C 11.7 °C 1009.4 hPa NW 5.5 km/h 8 km/h 99% 0 mm 0 W/m2
05:14 12.2 °C 12.1 °C 1009.4 hPa NW 5.1 km/h 6.4 km/h 99% 0 mm 0 W/m2
05:19 12.3 °C 12.2 °C 1009 hPa SSW 3.7 km/h 6.4 km/h 99% 0 mm 0 W/m2
05:24 12.2 °C 12.1 °C 1009 hPa West 3.7 km/h 3.2 km/h 99% 0 mm 0 W/m2
05:29 12.2 °C 12.1 °C 1009 hPa West 5.3 km/h 4.8 km/h 99% 0 mm 0 W/m2
05:34 12.2 °C 12.1 °C 1009 hPa WSW 10.1 km/h 9.7 km/h 99% 0 mm 0 W/m2
05:39 12.4 °C 12.2 °C 1009 hPa WSW 10.6 km/h 12.9 km/h 98.5% 0 mm 0 W/m2
05:44 12.8 °C 12.3 °C 1009 hPa WSW 11.3 km/h 12.9 km/h 97.2% 0 mm 0 W/m2
05:49 13.2 °C 12.5 °C 1009 hPa WSW 13.8 km/h 12.9 km/h 95.6% 0 mm 0 W/m2
05:54 13.4 °C 12.6 °C 1009 hPa WSW 11.4 km/h 19.3 km/h 94.9% 0 mm 0 W/m2
05:59 13.6 °C 12.6 °C 1009 hPa WSW 13 km/h 16.1 km/h 93.9% 0 mm 0 W/m2
06:04 13.9 °C 12.8 °C 1008.7 hPa SW 15.6 km/h 16.1 km/h 92.8% 0 mm 0 W/m2
06:09 14.3 °C 12.8 °C 1008.7 hPa SW 14.6 km/h 17.7 km/h 90.6% 0 mm 0 W/m2
06:14 14.4 °C 12.8 °C 1008.7 hPa SSW 10.8 km/h 16.1 km/h 90.3% 0 mm 0 W/m2
06:19 14.2 °C 12.8 °C 1008.7 hPa SW 6.1 km/h 11.3 km/h 91% 0 mm 0 W/m2
06:24 14.2 °C 12.8 °C 1008.7 hPa West 6 km/h 6.4 km/h 91% 0 mm 1 W/m2
06:29 14.2 °C 12.8 °C 1008.7 hPa WNW 4.5 km/h 8 km/h 91% 0 mm 1 W/m2
06:34 14.1 °C 12.9 °C 1008.7 hPa WNW 4 km/h 4.8 km/h 92.6% 0 mm 2 W/m2
06:39 14 °C 13 °C 1008.7 hPa West 5.5 km/h 5 km/h 93.7% 0 mm 5 W/m2
06:44 13.8 °C 12.9 °C 1008.7 hPa West 4.5 km/h 8 km/h 94.2% 0 mm 9 W/m2
06:49 13.7 °C 12.9 °C 1008.7 hPa West 4.7 km/h 4.8 km/h 95% 0 mm 10 W/m2
06:54 13.6 °C 12.8 °C 1008.7 hPa West 6.8 km/h 6.4 km/h 95% 0 mm 14 W/m2
06:59 13.6 °C 12.9 °C 1008.7 hPa West 4.8 km/h 8 km/h 95.2% 0 mm 21 W/m2
07:04 13.6 °C 13 °C 1008.7 hPa WSW 5.5 km/h 4.8 km/h 96% 0 mm 29 W/m2
07:09 13.6 °C 13.1 °C 1008.7 hPa West 6.6 km/h 6.4 km/h 96.8% 0 mm 41 W/m2
07:14 13.6 °C 13.2 °C 1009 hPa West 8.4 km/h 8 km/h 97.8% 0 mm 45 W/m2
07:19 13.7 °C 13.3 °C 1009 hPa West 6.1 km/h 9.7 km/h 97.5% 0 mm 45 W/m2
07:24 13.8 °C 13.4 °C 1009 hPa West 5.1 km/h 6.4 km/h 97.6% 0 mm 39 W/m2
07:29 13.8 °C 13.6 °C 1009 hPa WSW 4.2 km/h 6.4 km/h 98% 0 mm 37 W/m2
07:34 13.9 °C 13.5 °C 1009 hPa WSW 3.7 km/h 4.8 km/h 97.5% 0 mm 45 W/m2
07:39 13.9 °C 13.3 °C 1009.4 hPa WSW 5.5 km/h 4.8 km/h 96% 0 mm 68 W/m2
07:44 14.2 °C 13.4 °C 1009.4 hPa WSW 6.4 km/h 6.4 km/h 95.2% 0 mm 81 W/m2
07:49 14.4 °C 13.6 °C 1009.4 hPa WSW 7.6 km/h 8 km/h 94.7% 0 mm 80 W/m2
07:54 14.7 °C 13.7 °C 1009.4 hPa WSW 8.5 km/h 9.7 km/h 94% 0 mm 68 W/m2
07:59 14.8 °C 13.9 °C 1009.4 hPa WSW 7.4 km/h 9.7 km/h 93.8% 0 mm 49 W/m2
08:04 15.2 °C 14 °C 1009.4 hPa West 7.9 km/h 11.3 km/h 93.1% 0 mm 70 W/m2
08:09 15.3 °C 14.1 °C 1009.4 hPa WNW 6 km/h 11.3 km/h 92.6% 0 mm 63 W/m2
08:14 15.6 °C 14.1 °C 1009.4 hPa NW 5.1 km/h 8 km/h 90.8% 0 mm 63 W/m2
08:19 15.8 °C 14.2 °C 1009.4 hPa NW 5.1 km/h 6.4 km/h 90.2% 0 mm 59 W/m2
08:24 15.9 °C 14.2 °C 1009.7 hPa NW 5.8 km/h 8 km/h 89.3% 0 mm 60 W/m2
08:29 16.1 °C 14.3 °C 1009.7 hPa NW 5.3 km/h 8 km/h 89% 0 mm 60 W/m2
08:34 16.2 °C 14.3 °C 1009.7 hPa WNW 5.3 km/h 6.4 km/h 89% 0 mm 58 W/m2
08:39 16.2 °C 14.4 °C 1009.7 hPa WNW 6.8 km/h 6.4 km/h 89.3% 0 mm 58 W/m2
08:44 16.3 °C 14.5 °C 1009.7 hPa West 5.8 km/h 8 km/h 89% 0 mm 56 W/m2
08:49 16.3 °C 14.4 °C 1010 hPa West 5.1 km/h 8 km/h 88.3% 0 mm 56 W/m2
08:54 16.4 °C 14.6 °C 1010 hPa WSW 3.4 km/h 6.4 km/h 89.1% 0 mm 45 W/m2
08:59 16.4 °C 14.8 °C 1010 hPa WSW 2.3 km/h 4.8 km/h 90.2% 0 mm 57 W/m2
09:04 16.4 °C 14.9 °C 1010 hPa WSW 3.4 km/h 3.2 km/h 91% 0.25 mm 85 W/m2
09:09 16.4 °C 14.9 °C 1010 hPa WSW 3.9 km/h 3.2 km/h 91% 0.25 mm 107 W/m2
09:14 16.4 °C 15.3 °C 1010 hPa West 4.5 km/h 4.8 km/h 92.9% 0.25 mm 112 W/m2
09:19 16.4 °C 15.2 °C 1010 hPa WSW 4.8 km/h 4.8 km/h 92.6% 0.25 mm 139 W/m2
09:24 16.4 °C 15.3 °C 1010 hPa WSW 5.5 km/h 4.8 km/h 93.2% 0.25 mm 147 W/m2
09:29 16.5 °C 15.6 °C 1010.4 hPa WSW 5 km/h 4.8 km/h 94% 0.25 mm 141 W/m2
09:34 16.6 °C 15.7 °C 1010.4 hPa West 3.5 km/h 4.8 km/h 94.6% 0.25 mm 135 W/m2
09:39 16.6 °C 15.8 °C 1010.4 hPa WNW 3.5 km/h 3.2 km/h 95% 0.51 mm 121 W/m2
09:44 16.6 °C 15.8 °C 1010.4 hPa WNW 3.5 km/h 3.2 km/h 95% 0.51 mm 112 W/m2
09:49 16.7 °C 15.9 °C 1010.4 hPa West 3.5 km/h 3.2 km/h 95.4% 0.51 mm 136 W/m2
09:54 16.7 °C 16.1 °C 1010.4 hPa WSW 3.7 km/h 3.2 km/h 96% 0.51 mm 159 W/m2
09:59 16.8 °C 16.2 °C 1010.4 hPa WSW 4.7 km/h 4.7 km/h 96% 0.51 mm 159 W/m2
10:04 17 °C 16.2 °C 1010.4 hPa WSW 7.4 km/h 8 km/h 95.1% 0.25 mm 153 W/m2
10:09 17.1 °C 16.1 °C 1010.7 hPa SW 11.7 km/h 11.3 km/h 93.4% 0.25 mm 149 W/m2
10:14 17.2 °C 15.6 °C 1010.7 hPa SW 9.7 km/h 14.5 km/h 90.3% 0.25 mm 154 W/m2
10:19 17.3 °C 15.8 °C 1010.7 hPa SW 5.5 km/h 12.9 km/h 90.6% 0.25 mm 154 W/m2
10:24 17.4 °C 15.9 °C 1010.7 hPa SW 8.2 km/h 6.4 km/h 91% 0.25 mm 135 W/m2
10:29 17.5 °C 16 °C 1010.7 hPa SW 9.8 km/h 9.7 km/h 91% 0.25 mm 121 W/m2
10:34 17.4 °C 15.9 °C 1010.7 hPa SW 10.1 km/h 11.3 km/h 91% 0.25 mm 162 W/m2
10:39 17.4 °C 16 °C 1010.7 hPa SW 7.2 km/h 11.3 km/h 91.5% 0.25 mm 166 W/m2
10:44 17.4 °C 16.3 °C 1010.7 hPa SW 6.3 km/h 8 km/h 93.2% 0.25 mm 164 W/m2
10:49 17.4 °C 16.3 °C 1010.7 hPa SW 6.3 km/h 8 km/h 93% 0.25 mm 171 W/m2
10:54 17.4 °C 16.2 °C 1010.7 hPa SW 8 km/h 8 km/h 92.8% 0.25 mm 174 W/m2
10:59 17.5 °C 16.2 °C 1010.7 hPa WSW 7.7 km/h 9.7 km/h 92.3% 0.25 mm 158 W/m2
11:04 17.5 °C 16.2 °C 1010.7 hPa WSW 6.8 km/h 9.7 km/h 92% 0.25 mm 152 W/m2
11:09 17.5 °C 16.3 °C 1010.7 hPa West 7.6 km/h 8 km/h 93% 0.25 mm 151 W/m2
11:14 17.5 °C 16.3 °C 1010.7 hPa WSW 5.8 km/h 9.7 km/h 93% 0.25 mm 146 W/m2
11:19 17.6 °C 16.4 °C 1010.7 hPa WSW 6.4 km/h 8 km/h 93% 0.25 mm 146 W/m2
11:24 17.6 °C 16.4 °C 1010.7 hPa WSW 6.4 km/h 8 km/h 93% 0.25 mm 154 W/m2
11:29 17.7 °C 16.4 °C 1010.7 hPa WSW 7.6 km/h 9.7 km/h 92.1% 0 mm 155 W/m2
11:34 17.8 °C 16.3 °C 1010.7 hPa WSW 7.6 km/h 9.7 km/h 91% 0 mm 168 W/m2
11:39 17.9 °C 16.3 °C 1010.7 hPa SW 9.5 km/h 9.7 km/h 90.6% 0 mm 187 W/m2
11:44 18 °C 16.4 °C 1010.7 hPa SW 9.3 km/h 11.3 km/h 90.4% 0 mm 225 W/m2
11:49 18.2 °C 16.5 °C 1010.7 hPa SW 11.4 km/h 12.9 km/h 90% 0 mm 230 W/m2
11:54 18.3 °C 16.5 °C 1010.4 hPa SW 11.6 km/h 11.3 km/h 89.2% 0 mm 221 W/m2
11:59 18.4 °C 16.6 °C 1010.4 hPa SW 11.9 km/h 12.9 km/h 89% 0 mm 189 W/m2
12:04 18.6 °C 16.6 °C 1010.4 hPa SW 11.1 km/h 12.9 km/h 88.3% 0 mm 168 W/m2
12:09 18.7 °C 16.6 °C 1010.4 hPa SW 12.7 km/h 14.5 km/h 87.6% 0 mm 186 W/m2
12:14 18.7 °C 16.7 °C 1010.4 hPa SW 10.5 km/h 14.5 km/h 88% 0 mm 195 W/m2
12:19 18.8 °C 16.8 °C 1010.4 hPa SW 11.9 km/h 12.9 km/h 87.8% 0 mm 195 W/m2
12:24 18.9 °C 16.6 °C 1010.7 hPa WSW 11.3 km/h 12.9 km/h 86.1% 0 mm 225 W/m2
12:29 19.1 °C 16.8 °C 1010.4 hPa WSW 10.3 km/h 12.9 km/h 86.3% 0 mm 235 W/m2
12:34 19.2 °C 16.8 °C 1010.4 hPa WSW 7.9 km/h 11.3 km/h 86.1% 0 mm 219 W/m2
12:39 19.3 °C 16.9 °C 1010.4 hPa West 6.1 km/h 8 km/h 86.2% 0 mm 193 W/m2
12:44 19.4 °C 17.1 °C 1010.4 hPa NW 6.1 km/h 8 km/h 86.3% 0 mm 188 W/m2
12:49 19.5 °C 17.1 °C 1010.4 hPa North 6.9 km/h 8 km/h 86% 0 mm 225 W/m2
12:54 19.6 °C 17.1 °C 1010.4 hPa NNE 6.6 km/h 8 km/h 85.5% 0 mm 267 W/m2
12:59 19.8 °C 17.3 °C 1010.4 hPa NE 8.2 km/h 8 km/h 85.5% 0 mm 299 W/m2
13:04 19.9 °C 17.2 °C 1010.4 hPa ENE 7.2 km/h 9.7 km/h 84.6% 0 mm 299 W/m2
13:09 20 °C 17.4 °C 1010.4 hPa NE 6.9 km/h 8 km/h 84.9% 0 mm 325 W/m2
13:14 20.1 °C 17.4 °C 1010.4 hPa NE 4.5 km/h 8 km/h 84.6% 0 mm 338 W/m2
13:19 20.3 °C 17.5 °C 1010.4 hPa East 5.8 km/h 6.4 km/h 84.1% 0 mm 307 W/m2
13:24 20.6 °C 17.2 °C 1010.4 hPa South 10.9 km/h 8.7 km/h 81.4% 0 mm 285 W/m2
13:29 20.8 °C 16.9 °C 1010.4 hPa SSW 10.8 km/h 12.9 km/h 78.3% 0 mm 264 W/m2
13:34 20.9 °C 17.1 °C 1010.4 hPa SSW 8 km/h 11.3 km/h 78.4% 0 mm 225 W/m2
13:39 20.9 °C 17.3 °C 1010.4 hPa SSE 6.9 km/h 9.7 km/h 80.2% 0 mm 182 W/m2
13:44 20.6 °C 17.4 °C 1010.4 hPa East 6.6 km/h 8 km/h 82.3% 0 mm 154 W/m2
13:49 20.4 °C 17.3 °C 1010.4 hPa ENE 10.9 km/h 8 km/h 82.6% 0 mm 151 W/m2
13:54 20.4 °C 16.9 °C 1010.4 hPa ESE 6.6 km/h 12.9 km/h 80.3% 0 mm 181 W/m2
13:59 20.6 °C 16.8 °C 1010.4 hPa SSE 9.7 km/h 8.7 km/h 78.5% 0 mm 174 W/m2
14:04 20.8 °C 16.9 °C 1010.4 hPa SSW 7.2 km/h 12.9 km/h 78.8% 0 mm 165 W/m2
14:09 20.9 °C 17.3 °C 1010.4 hPa SW 7.9 km/h 8 km/h 79.7% 0 mm 171 W/m2
14:14 20.9 °C 17.3 °C 1010.4 hPa SW 9.3 km/h 9.7 km/h 80% 0 mm 171 W/m2
14:19 20.9 °C 17.2 °C 1010.4 hPa SW 12.9 km/h 12.9 km/h 79.3% 0 mm 167 W/m2
14:24 20.8 °C 16.9 °C 1010.4 hPa SW 14.2 km/h 14.5 km/h 78.6% 0 mm 156 W/m2
14:29 20.8 °C 16.9 °C 1010.4 hPa SW 13.5 km/h 16.1 km/h 78.5% 0 mm 138 W/m2
14:34 20.8 °C 16.8 °C 1010.4 hPa SW 14.2 km/h 14.5 km/h 78% 0 mm 139 W/m2
14:39 20.8 °C 16.7 °C 1010.4 hPa SW 15.1 km/h 14.5 km/h 77.4% 0 mm 165 W/m2
14:44 20.8 °C 16.7 °C 1010.4 hPa SW 14.6 km/h 16.1 km/h 77.3% 0 mm 175 W/m2
14:49 20.9 °C 16.8 °C 1010.4 hPa SW 13.4 km/h 16.1 km/h 77.3% 0 mm 186 W/m2
14:54 20.9 °C 16.7 °C 1010.4 hPa SW 13.4 km/h 14.5 km/h 77.1% 0 mm 186 W/m2
14:59 20.9 °C 16.7 °C 1010.4 hPa SW 14.6 km/h 16.1 km/h 76.5% 0 mm 190 W/m2
15:04 21 °C 16.4 °C 1010.4 hPa SW 15.4 km/h 17.7 km/h 75% 0 mm 190 W/m2
15:09 21.1 °C 16.5 °C 1010.4 hPa SW 14.8 km/h 17.7 km/h 75% 0 mm 181 W/m2
15:14 21.1 °C 16.3 °C 1010.4 hPa SW 16.3 km/h 16.1 km/h 74.4% 0 mm 195 W/m2
15:19 21.2 °C 16.2 °C 1010.4 hPa SW 21.6 km/h 20.9 km/h 73.2% 0 mm 239 W/m2
15:24 21.3 °C 16.1 °C 1010.4 hPa SW 21.2 km/h 25.7 km/h 72.4% 0 mm 272 W/m2
15:29 21.3 °C 16.1 °C 1010.4 hPa SW 22.5 km/h 25.7 km/h 72% 0 mm 267 W/m2
15:34 21.3 °C 16.2 °C 1010.4 hPa SW 18 km/h 25.7 km/h 72.5% 0 mm 225 W/m2
15:39 21.3 °C 16.2 °C 1010.4 hPa SW 17.5 km/h 20.9 km/h 72.3% 0 mm 207 W/m2
15:44 21.3 °C 16.2 °C 1010.4 hPa SW 15 km/h 19.3 km/h 72.4% 0 mm 201 W/m2
15:49 21.3 °C 16.2 °C 1010.4 hPa SW 14.3 km/h 14.5 km/h 72.5% 0 mm 179 W/m2
15:54 21.3 °C 16.1 °C 1010.4 hPa SSW 15.3 km/h 16.1 km/h 71.8% 0 mm 159 W/m2
15:59 21.3 °C 16.1 °C 1010.4 hPa SSW 14.3 km/h 16.1 km/h 72% 0 mm 156 W/m2
16:04 21.2 °C 15.9 °C 1010.7 hPa SW 14.2 km/h 16.1 km/h 72% 0 mm 207 W/m2
16:09 21.2 °C 15.8 °C 1010.7 hPa SW 18.3 km/h 19.3 km/h 71.2% 0 mm 270 W/m2
16:14 21.3 °C 16 °C 1010.7 hPa SW 15.6 km/h 20.9 km/h 71.8% 0 mm 262 W/m2
16:19 21.3 °C 15.6 °C 1010.7 hPa SW 23.5 km/h 20.4 km/h 70.1% 0 mm 262 W/m2
16:24 21.2 °C 15.4 °C 1010.7 hPa SW 21.2 km/h 29 km/h 70% 0 mm 149 W/m2
16:29 20.9 °C 15.3 °C 1010.7 hPa SW 20.8 km/h 24.1 km/h 70.2% 0 mm 135 W/m2
16:34 20.8 °C 15.6 °C 1010.7 hPa SW 17.9 km/h 22.5 km/h 71.9% 0 mm 121 W/m2
16:39 20.8 °C 15.5 °C 1010.7 hPa SW 15.9 km/h 19.3 km/h 72% 0 mm 140 W/m2
16:44 20.7 °C 15.5 °C 1010.7 hPa SW 20.8 km/h 20.9 km/h 72.2% 0 mm 140 W/m2
16:49 20.6 °C 15.6 °C 1010.7 hPa SW 19.8 km/h 24.1 km/h 72.7% 0 mm 141 W/m2
16:54 20.6 °C 15.6 °C 1010.7 hPa SW 17.4 km/h 22.5 km/h 73.2% 0 mm 119 W/m2
16:59 20.4 °C 15.4 °C 1010.7 hPa SW 18.3 km/h 20.9 km/h 73% 0 mm 111 W/m2
17:04 20.4 °C 15.4 °C 1010.7 hPa SW 16.9 km/h 20.9 km/h 73.4% 0 mm 95 W/m2
17:09 20.3 °C 15.5 °C 1010.7 hPa SW 12.7 km/h 19.3 km/h 74% 0 mm 99 W/m2
17:14 20.3 °C 15.5 °C 1010.7 hPa SW 11.6 km/h 14.5 km/h 74% 0 mm 99 W/m2
17:19 20.2 °C 15.5 °C 1010.7 hPa SSW 9.5 km/h 12.9 km/h 74.3% 0 mm 119 W/m2
17:24 20.2 °C 15.5 °C 1010.7 hPa SW 12.9 km/h 14.5 km/h 74.4% 0 mm 95 W/m2
17:29 20.2 °C 15.6 °C 1010.7 hPa SW 10.1 km/h 12.9 km/h 74.6% 0 mm 111 W/m2
17:34 20.2 °C 15.5 °C 1010.7 hPa SW 9.8 km/h 11.3 km/h 74.5% 0 mm 106 W/m2
17:39 20.2 °C 15.5 °C 1010.7 hPa SSW 6.8 km/h 11.3 km/h 74.4% 0 mm 95 W/m2
17:44 20.2 °C 15.4 °C 1010.7 hPa South 6.6 km/h 8 km/h 74.2% 0 mm 75 W/m2
17:49 20.2 °C 15.5 °C 1010.7 hPa South 8 km/h 8 km/h 74.5% 0 mm 58 W/m2
17:54 20.1 °C 15.6 °C 1010.7 hPa South 10.3 km/h 9.7 km/h 74.9% 0 mm 39 W/m2
17:59 19.9 °C 15.4 °C 1010.7 hPa SW 8 km/h 11.3 km/h 75% 0 mm 28 W/m2
18:04 19.8 °C 15.4 °C 1010.7 hPa SW 5.5 km/h 9.7 km/h 75.5% 0 mm 23 W/m2
18:09 19.7 °C 15.6 °C 1010.7 hPa SW 7.9 km/h 6.8 km/h 77% 0 mm 17 W/m2
18:14 19.5 °C 15.3 °C 1011.1 hPa SW 9.7 km/h 9.7 km/h 77% 0 mm 11 W/m2
18:19 19.3 °C 15.3 °C 1011.1 hPa SW 7.2 km/h 11.3 km/h 77.1% 0 mm 7 W/m2
18:24 19.3 °C 15.3 °C 1011.1 hPa SW 6.3 km/h 8 km/h 77.9% 0 mm 3 W/m2
18:29 19.2 °C 15.2 °C 1011.1 hPa SW 5.1 km/h 8 km/h 78% 0 mm 1 W/m2
18:34 19.1 °C 15.3 °C 1011.1 hPa SSW 3.9 km/h 6.4 km/h 78.6% 0 mm 0 W/m2
18:39 18.9 °C 15.2 °C 1011.1 hPa South 4 km/h 4.8 km/h 79.3% 0 mm 0 W/m2
18:44 18.7 °C 15.2 °C 1011.1 hPa SW 3.4 km/h 4.8 km/h 80% 0 mm 0 W/m2
18:49 18.6 °C 15.2 °C 1011.1 hPa West 3.5 km/h 3.2 km/h 80.6% 0 mm 0 W/m2
18:54 18.3 °C 15 °C 1011.1 hPa West 3.1 km/h 3.2 km/h 81% 0 mm 0 W/m2
18:59 18.2 °C 15 °C 1011.1 hPa West 6.3 km/h 8 km/h 82% 0 mm 0 W/m2
19:04 18 °C 14.7 °C 1011.1 hPa WSW 6.3 km/h 8 km/h 81.3% 0 mm 0 W/m2
19:09 18.1 °C 14.5 °C 1011.4 hPa SW 11.9 km/h 10.1 km/h 79.7% 0 mm 0 W/m2
19:14 18.3 °C 14.6 °C 1011.4 hPa SSW 7.2 km/h 14.5 km/h 79% 0 mm 0 W/m2
19:19 18.3 °C 14.8 °C 1011.4 hPa South 6.3 km/h 8 km/h 80% 0 mm 0 W/m2
19:24 18.1 °C 14.8 °C 1011.4 hPa WSW 7.7 km/h 8 km/h 81% 0 mm 0 W/m2
19:29 17.9 °C 14.6 °C 1011.4 hPa WSW 6.8 km/h 9.7 km/h 81.2% 0 mm 0 W/m2
19:34 17.7 °C 14.7 °C 1011.4 hPa WSW 6.6 km/h 8 km/h 82.9% 0 mm 0 W/m2
19:39 17.4 °C 14.5 °C 1011.4 hPa SW 6.1 km/h 8 km/h 83% 0 mm 0 W/m2
19:44 17.3 °C 14.4 °C 1011.4 hPa SSW 5.3 km/h 8 km/h 83% 0 mm 0 W/m2
19:49 17.2 °C 14.2 °C 1011.4 hPa SW 4.7 km/h 4.8 km/h 83% 0 mm 0 W/m2
19:54 17.1 °C 14.2 °C 1011.7 hPa SW 4.5 km/h 4.8 km/h 83.2% 0 mm 0 W/m2
19:59 16.9 °C 14.2 °C 1011.7 hPa WSW 5 km/h 6.4 km/h 83.4% 0 mm 0 W/m2
20:04 16.9 °C 14 °C 1011.7 hPa West 7.1 km/h 9.7 km/h 83.1% 0 mm 0 W/m2
20:09 16.9 °C 14 °C 1011.7 hPa West 3.9 km/h 8 km/h 83% 0 mm 0 W/m2
20:14 16.9 °C 14 °C 1011.7 hPa WNW 3.2 km/h 4.8 km/h 83% 0 mm 0 W/m2
20:19 16.9 °C 14 °C 1011.7 hPa WSW 5.6 km/h 5 km/h 83% 0 mm 0 W/m2
20:24 17 °C 14.1 °C 1011.7 hPa SSE 6 km/h 8 km/h 83% 0 mm 0 W/m2
20:29 17.1 °C 13.9 °C 1011.7 hPa ESE 7.1 km/h 8 km/h 81.7% 0 mm 0 W/m2
20:34 17.2 °C 13.9 °C 1012.1 hPa SE 9.3 km/h 9.7 km/h 80.9% 0 mm 0 W/m2
20:39 17.4 °C 13.9 °C 1011.7 hPa SE 7.7 km/h 11.3 km/h 80.1% 0 mm 0 W/m2
20:44 17.5 °C 14 °C 1012.1 hPa SSE 7.9 km/h 9.7 km/h 80% 0 mm 0 W/m2
20:49 17.5 °C 14 °C 1012.1 hPa SSE 6.4 km/h 9.7 km/h 80% 0 mm 0 W/m2
20:54 17.4 °C 13.9 °C 1012.1 hPa SSE 9.2 km/h 11.3 km/h 80.1% 0 mm 0 W/m2
20:59 17.4 °C 14.1 °C 1012.1 hPa SSE 6.8 km/h 11.3 km/h 80.9% 0 mm 0 W/m2
21:04 17.3 °C 14.1 °C 1012.1 hPa SSE 5.5 km/h 8 km/h 81.3% 0 mm 0 W/m2
21:09 17.2 °C 14.2 °C 1012.4 hPa SSW 4.3 km/h 8 km/h 83% 0 mm 0 W/m2
21:14 16.9 °C 14.2 °C 1012.4 hPa WNW 5.6 km/h 5 km/h 83.5% 0 mm 0 W/m2
21:19 16.8 °C 14 °C 1012.4 hPa NW 6 km/h 8 km/h 83.6% 0 mm 0 W/m2
21:24 16.7 °C 14 °C 1012.4 hPa NW 4.3 km/h 8 km/h 84.3% 0 mm 0 W/m2
21:29 16.5 °C 13.9 °C 1012.4 hPa NW 3.1 km/h 4.8 km/h 85% 0 mm 0 W/m2
21:34 16.3 °C 13.9 °C 1012.4 hPa NW 4 km/h 4.8 km/h 85.6% 0 mm 0 W/m2
21:39 16.2 °C 13.9 °C 1012.4 hPa WNW 2.9 km/h 4.8 km/h 86% 0 mm 0 W/m2
21:44 16 °C 13.9 °C 1012.4 hPa WNW 4.2 km/h 6.4 km/h 87.6% 0 mm 0 W/m2
21:49 15.8 °C 13.9 °C 1012.4 hPa NNW 3.4 km/h 4.8 km/h 88.3% 0 mm 0 W/m2
21:54 15.7 °C 13.9 °C 1012.4 hPa North 1.8 km/h 3.2 km/h 89% 0 mm 0 W/m2
21:59 15.6 °C 13.8 °C 1012.4 hPa NNW 1.8 km/h 1.6 km/h 89.4% 0 mm 0 W/m2
22:04 15.4 °C 13.8 °C 1012.4 hPa NNW 1.3 km/h 1.6 km/h 90% 0 mm 0 W/m2
22:09 15.3 °C 13.7 °C 1012.8 hPa North 5.6 km/h 5.5 km/h 89.9% 0 mm 0 W/m2
22:14 15.3 °C 13.6 °C 1012.8 hPa NE 6 km/h 8 km/h 89.7% 0 mm 0 W/m2
22:19 15.6 °C 13.8 °C 1012.8 hPa NE 5 km/h 8 km/h 89.2% 0 mm 0 W/m2
22:24 15.7 °C 13.9 °C 1012.8 hPa ESE 5 km/h 6.4 km/h 89% 0 mm 0 W/m2
22:29 15.8 °C 13.9 °C 1012.8 hPa SE 8.5 km/h 6.4 km/h 88.5% 0 mm 0 W/m2
22:34 16 °C 14 °C 1012.8 hPa SE 7.7 km/h 12.9 km/h 87.8% 0 mm 0 W/m2
22:39 16.2 °C 13.8 °C 1012.8 hPa ESE 6.6 km/h 9.7 km/h 86.1% 0 mm 0 W/m2
22:44 16.2 °C 13.8 °C 1012.8 hPa ESE 5.5 km/h 9.7 km/h 86% 0 mm 0 W/m2
22:49 16.1 °C 13.8 °C 1012.8 hPa ESE 3.9 km/h 8 km/h 86% 0 mm 0 W/m2
22:54 16.1 °C 13.9 °C 1012.8 hPa ESE 6.3 km/h 4.8 km/h 87.3% 0 mm 0 W/m2
22:59 16 °C 14 °C 1012.8 hPa ESE 9.5 km/h 11.3 km/h 88% 0 mm 0 W/m2
23:04 16.1 °C 14 °C 1012.8 hPa SE 10 km/h 11.3 km/h 87.6% 0 mm 0 W/m2
23:09 16.2 °C 13.8 °C 1012.8 hPa SE 13.7 km/h 12.9 km/h 86.3% 0 mm 0 W/m2
23:14 16.2 °C 13.8 °C 1012.8 hPa SE 10.3 km/h 14.5 km/h 86.2% 0 mm 0 W/m2
23:19 16.1 °C 14.1 °C 1012.8 hPa SSE 9 km/h 12.9 km/h 87.9% 0 mm 0 W/m2
23:24 16.1 °C 14.1 °C 1012.8 hPa SSE 6.9 km/h 11.3 km/h 88% 0 mm 0 W/m2
23:29 16 °C 14 °C 1012.8 hPa SSE 10.1 km/h 8 km/h 88% 0 mm 0 W/m2
23:34 16.1 °C 13.9 °C 1012.8 hPa SSE 12.2 km/h 12.9 km/h 87% 0 mm 0 W/m2
23:39 16.3 °C 13.9 °C 1012.8 hPa South 5.1 km/h 14.5 km/h 86% 0 mm 0 W/m2
23:44 16.2 °C 13.9 °C 1012.8 hPa South 4.3 km/h 4.8 km/h 86.5% 0 mm 0 W/m2
23:49 16 °C 14 °C 1012.8 hPa South 4.2 km/h 4.8 km/h 88% 0 mm 0 W/m2
23:54 15.9 °C 13.9 °C 1012.8 hPa WNW 3.1 km/h 4.8 km/h 88% 0 mm 0 W/m2
23:59 15.8 °C 13.8 °C 1012.8 hPa WNW 3.1 km/h 3.2 km/h 88.1% 0 mm 0 W/m2
Knjazevac, Serbia
Compliments of Weather Underground - 4 mb